sensor_id;sensor_type;location;lat;lon;timestamp;P1;durP1;ratioP1;P2;durP2;ratioP2
35990;SDS011;22064;42.672;23.282;2024-01-10T00:00:39;0.30;;;0.22;;
35990;SDS011;22064;42.672;23.282;2024-01-10T00:03:05;0.00;;;0.00;;
35990;SDS011;22064;42.672;23.282;2024-01-10T00:05:30;0.65;;;0.65;;
35990;SDS011;22064;42.672;23.282;2024-01-10T00:07:57;1.70;;;0.75;;
35990;SDS011;22064;42.672;23.282;2024-01-10T00:10:23;2.35;;;1.13;;
35990;SDS011;22064;42.672;23.282;2024-01-10T00:12:49;1.58;;;0.95;;
35990;SDS011;22064;42.672;23.282;2024-01-10T00:15:15;0.82;;;0.60;;
35990;SDS011;22064;42.672;23.282;2024-01-10T00:17:41;1.02;;;0.75;;
35990;SDS011;22064;42.672;23.282;2024-01-10T00:20:07;0.00;;;0.00;;
35990;SDS011;22064;42.672;23.282;2024-01-10T00:22:33;2.15;;;0.70;;
35990;SDS011;22064;42.672;23.282;2024-01-10T00:24:59;1.42;;;1.05;;
35990;SDS011;22064;42.672;23.282;2024-01-10T00:27:25;1.65;;;1.17;;
35990;SDS011;22064;42.672;23.282;2024-01-10T00:29:51;3.83;;;1.55;;
35990;SDS011;22064;42.672;23.282;2024-01-10T00:32:17;5.70;;;5.15;;
35990;SDS011;22064;42.672;23.282;2024-01-10T00:34:43;0.00;;;0.00;;
35990;SDS011;22064;42.672;23.282;2024-01-10T00:37:09;0.10;;;0.10;;
35990;SDS011;22064;42.672;23.282;2024-01-10T00:39:35;0.43;;;0.43;;
35990;SDS011;22064;42.672;23.282;2024-01-10T00:42:01;0.30;;;0.25;;
35990;SDS011;22064;42.672;23.282;2024-01-10T00:44:27;0.50;;;0.35;;
35990;SDS011;22064;42.672;23.282;2024-01-10T00:46:53;0.70;;;0.55;;
35990;SDS011;22064;42.672;23.282;2024-01-10T00:49:19;0.00;;;0.00;;
35990;SDS011;22064;42.672;23.282;2024-01-10T00:51:45;1.85;;;1.75;;
35990;SDS011;22064;42.672;23.282;2024-01-10T00:54:11;5.75;;;4.13;;
35990;SDS011;22064;42.672;23.282;2024-01-10T00:56:37;3.55;;;1.10;;
35990;SDS011;22064;42.672;23.282;2024-01-10T00:59:03;0.35;;;0.28;;
35990;SDS011;22064;42.672;23.282;2024-01-10T01:01:28;2.92;;;0.50;;
35990;SDS011;22064;42.672;23.282;2024-01-10T01:03:55;2.80;;;0.98;;
35990;SDS011;22064;42.672;23.282;2024-01-10T01:06:21;0.10;;;0.10;;
35990;SDS011;22064;42.672;23.282;2024-01-10T01:08:47;2.90;;;1.75;;
35990;SDS011;22064;42.672;23.282;2024-01-10T01:11:13;0.25;;;0.25;;
35990;SDS011;22064;42.672;23.282;2024-01-10T01:13:40;1.20;;;1.02;;
35990;SDS011;22064;42.672;23.282;2024-01-10T01:16:06;0.10;;;0.10;;
35990;SDS011;22064;42.672;23.282;2024-01-10T01:18:32;0.20;;;0.10;;
35990;SDS011;22064;42.672;23.282;2024-01-10T01:20:58;1.08;;;0.82;;
35990;SDS011;22064;42.672;23.282;2024-01-10T01:23:23;0.20;;;0.20;;
35990;SDS011;22064;42.672;23.282;2024-01-10T01:25:50;1.67;;;1.40;;
35990;SDS011;22064;42.672;23.282;2024-01-10T01:28:16;0.90;;;0.90;;
35990;SDS011;22064;42.672;23.282;2024-01-10T01:30:42;1.42;;;1.00;;
35990;SDS011;22064;42.672;23.282;2024-01-10T01:33:08;0.00;;;0.00;;
35990;SDS011;22064;42.672;23.282;2024-01-10T01:35:34;1.08;;;0.65;;
35990;SDS011;22064;42.672;23.282;2024-01-10T01:38:00;1.05;;;1.02;;
35990;SDS011;22064;42.672;23.282;2024-01-10T01:40:26;6.13;;;1.45;;
35990;SDS011;22064;42.672;23.282;2024-01-10T01:42:52;1.55;;;1.35;;
35990;SDS011;22064;42.672;23.282;2024-01-10T01:45:19;2.75;;;1.83;;
35990;SDS011;22064;42.672;23.282;2024-01-10T01:47:44;6.78;;;2.05;;
35990;SDS011;22064;42.672;23.282;2024-01-10T01:50:11;3.97;;;1.98;;
35990;SDS011;22064;42.672;23.282;2024-01-10T01:52:37;0.00;;;0.00;;
35990;SDS011;22064;42.672;23.282;2024-01-10T01:55:03;0.05;;;0.05;;
35990;SDS011;22064;42.672;23.282;2024-01-10T01:57:31;2.45;;;1.17;;
35990;SDS011;22064;42.672;23.282;2024-01-10T01:59:58;6.03;;;2.17;;
35990;SDS011;22064;42.672;23.282;2024-01-10T02:02:24;0.38;;;0.20;;
35990;SDS011;22064;42.672;23.282;2024-01-10T02:04:50;1.45;;;0.70;;
35990;SDS011;22064;42.672;23.282;2024-01-10T02:07:16;0.05;;;0.05;;
35990;SDS011;22064;42.672;23.282;2024-01-10T02:09:42;1.20;;;0.82;;
35990;SDS011;22064;42.672;23.282;2024-01-10T02:12:08;1.10;;;1.08;;
35990;SDS011;22064;42.672;23.282;2024-01-10T02:14:34;2.58;;;0.98;;
35990;SDS011;22064;42.672;23.282;2024-01-10T02:17:01;1.00;;;1.00;;
35990;SDS011;22064;42.672;23.282;2024-01-10T02:19:27;3.03;;;1.67;;
35990;SDS011;22064;42.672;23.282;2024-01-10T02:21:54;1.92;;;1.63;;
35990;SDS011;22064;42.672;23.282;2024-01-10T02:24:21;7.75;;;2.90;;
35990;SDS011;22064;42.672;23.282;2024-01-10T02:26:47;1.85;;;1.75;;
35990;SDS011;22064;42.672;23.282;2024-01-10T02:29:14;1.83;;;1.08;;
35990;SDS011;22064;42.672;23.282;2024-01-10T02:31:40;2.03;;;0.88;;
35990;SDS011;22064;42.672;23.282;2024-01-10T02:34:06;1.00;;;0.95;;
35990;SDS011;22064;42.672;23.282;2024-01-10T02:36:32;0.00;;;0.00;;
35990;SDS011;22064;42.672;23.282;2024-01-10T02:38:58;0.00;;;0.00;;
35990;SDS011;22064;42.672;23.282;2024-01-10T02:41:24;0.15;;;0.15;;
35990;SDS011;22064;42.672;23.282;2024-01-10T02:43:50;0.00;;;0.00;;
35990;SDS011;22064;42.672;23.282;2024-01-10T02:46:16;0.00;;;0.00;;
35990;SDS011;22064;42.672;23.282;2024-01-10T02:48:41;0.00;;;0.00;;
35990;SDS011;22064;42.672;23.282;2024-01-10T02:51:07;0.10;;;0.10;;
35990;SDS011;22064;42.672;23.282;2024-01-10T02:53:33;0.00;;;0.00;;
35990;SDS011;22064;42.672;23.282;2024-01-10T02:55:59;1.27;;;1.17;;
35990;SDS011;22064;42.672;23.282;2024-01-10T02:58:25;0.03;;;0.03;;
35990;SDS011;22064;42.672;23.282;2024-01-10T03:00:51;0.00;;;0.00;;
35990;SDS011;22064;42.672;23.282;2024-01-10T03:03:17;0.00;;;0.00;;
35990;SDS011;22064;42.672;23.282;2024-01-10T03:05:43;0.10;;;0.10;;
35990;SDS011;22064;42.672;23.282;2024-01-10T03:08:09;0.08;;;0.08;;
35990;SDS011;22064;42.672;23.282;2024-01-10T03:10:35;0.00;;;0.00;;
35990;SDS011;22064;42.672;23.282;2024-01-10T03:13:01;1.88;;;1.40;;
35990;SDS011;22064;42.672;23.282;2024-01-10T03:15:27;0.00;;;0.00;;
35990;SDS011;22064;42.672;23.282;2024-01-10T03:17:53;0.00;;;0.00;;
35990;SDS011;22064;42.672;23.282;2024-01-10T03:20:19;0.10;;;0.10;;
35990;SDS011;22064;42.672;23.282;2024-01-10T03:22:44;1.42;;;1.25;;
35990;SDS011;22064;42.672;23.282;2024-01-10T03:25:10;0.47;;;0.47;;
35990;SDS011;22064;42.672;23.282;2024-01-10T03:27:36;0.20;;;0.20;;
35990;SDS011;22064;42.672;23.282;2024-01-10T03:30:02;2.65;;;1.08;;
35990;SDS011;22064;42.672;23.282;2024-01-10T03:32:29;0.30;;;0.30;;
35990;SDS011;22064;42.672;23.282;2024-01-10T03:34:55;0.15;;;0.15;;
35990;SDS011;22064;42.672;23.282;2024-01-10T03:37:21;0.00;;;0.00;;
35990;SDS011;22064;42.672;23.282;2024-01-10T03:39:47;0.10;;;0.10;;
35990;SDS011;22064;42.672;23.282;2024-01-10T03:42:13;3.20;;;0.98;;
35990;SDS011;22064;42.672;23.282;2024-01-10T03:44:41;0.00;;;0.00;;
35990;SDS011;22064;42.672;23.282;2024-01-10T03:47:07;1.20;;;1.10;;
35990;SDS011;22064;42.672;23.282;2024-01-10T03:49:32;2.60;;;0.73;;
35990;SDS011;22064;42.672;23.282;2024-01-10T03:51:58;0.98;;;0.40;;
35990;SDS011;22064;42.672;23.282;2024-01-10T03:54:24;5.22;;;1.45;;
35990;SDS011;22064;42.672;23.282;2024-01-10T03:56:50;3.95;;;1.25;;
35990;SDS011;22064;42.672;23.282;2024-01-10T03:59:17;2.60;;;1.38;;
35990;SDS011;22064;42.672;23.282;2024-01-10T04:01:43;2.25;;;1.48;;
35990;SDS011;22064;42.672;23.282;2024-01-10T04:04:09;2.25;;;1.75;;
35990;SDS011;22064;42.672;23.282;2024-01-10T04:06:34;0.73;;;0.73;;
35990;SDS011;22064;42.672;23.282;2024-01-10T04:09:01;1.33;;;1.23;;
35990;SDS011;22064;42.672;23.282;2024-01-10T04:11:27;12.85;;;1.95;;
35990;SDS011;22064;42.672;23.282;2024-01-10T04:13:53;0.30;;;0.30;;
35990;SDS011;22064;42.672;23.282;2024-01-10T04:16:19;0.13;;;0.13;;
35990;SDS011;22064;42.672;23.282;2024-01-10T04:18:45;0.10;;;0.10;;
35990;SDS011;22064;42.672;23.282;2024-01-10T04:21:10;0.85;;;0.25;;
35990;SDS011;22064;42.672;23.282;2024-01-10T04:23:37;0.43;;;0.43;;
35990;SDS011;22064;42.672;23.282;2024-01-10T04:26:03;1.10;;;1.10;;
35990;SDS011;22064;42.672;23.282;2024-01-10T04:28:29;4.13;;;1.30;;
35990;SDS011;22064;42.672;23.282;2024-01-10T04:30:55;0.50;;;0.50;;
35990;SDS011;22064;42.672;23.282;2024-01-10T04:33:21;0.30;;;0.30;;
35990;SDS011;22064;42.672;23.282;2024-01-10T04:35:47;0.20;;;0.20;;
35990;SDS011;22064;42.672;23.282;2024-01-10T04:38:13;0.52;;;0.52;;
35990;SDS011;22064;42.672;23.282;2024-01-10T04:40:39;2.78;;;1.35;;
35990;SDS011;22064;42.672;23.282;2024-01-10T04:43:05;1.92;;;0.82;;
35990;SDS011;22064;42.672;23.282;2024-01-10T04:45:31;2.28;;;1.15;;
35990;SDS011;22064;42.672;23.282;2024-01-10T04:47:57;0.43;;;0.43;;
35990;SDS011;22064;42.672;23.282;2024-01-10T04:50:23;0.15;;;0.15;;
35990;SDS011;22064;42.672;23.282;2024-01-10T04:52:49;0.75;;;0.47;;
35990;SDS011;22064;42.672;23.282;2024-01-10T04:55:15;0.40;;;0.40;;
35990;SDS011;22064;42.672;23.282;2024-01-10T04:57:41;0.40;;;0.40;;
35990;SDS011;22064;42.672;23.282;2024-01-10T05:00:07;0.73;;;0.73;;
35990;SDS011;22064;42.672;23.282;2024-01-10T05:02:33;1.70;;;0.50;;
35990;SDS011;22064;42.672;23.282;2024-01-10T05:04:59;2.00;;;1.60;;
35990;SDS011;22064;42.672;23.282;2024-01-10T05:07:24;2.28;;;2.03;;
35990;SDS011;22064;42.672;23.282;2024-01-10T05:09:50;2.45;;;1.40;;
35990;SDS011;22064;42.672;23.282;2024-01-10T05:12:16;3.08;;;2.80;;
35990;SDS011;22064;42.672;23.282;2024-01-10T05:14:42;0.68;;;0.68;;
35990;SDS011;22064;42.672;23.282;2024-01-10T05:17:08;0.10;;;0.10;;
35990;SDS011;22064;42.672;23.282;2024-01-10T05:19:34;5.18;;;2.58;;
35990;SDS011;22064;42.672;23.282;2024-01-10T05:22:00;1.40;;;1.30;;
35990;SDS011;22064;42.672;23.282;2024-01-10T05:24:26;0.70;;;0.52;;
35990;SDS011;22064;42.672;23.282;2024-01-10T05:26:52;1.40;;;1.30;;
35990;SDS011;22064;42.672;23.282;2024-01-10T05:29:18;1.55;;;1.15;;
35990;SDS011;22064;42.672;23.282;2024-01-10T05:31:45;1.33;;;0.45;;
35990;SDS011;22064;42.672;23.282;2024-01-10T05:34:12;0.30;;;0.30;;
35990;SDS011;22064;42.672;23.282;2024-01-10T05:36:38;0.52;;;0.30;;
35990;SDS011;22064;42.672;23.282;2024-01-10T05:39:04;0.75;;;0.75;;
35990;SDS011;22064;42.672;23.282;2024-01-10T05:41:30;1.52;;;0.65;;
35990;SDS011;22064;42.672;23.282;2024-01-10T05:43:56;0.20;;;0.20;;
35990;SDS011;22064;42.672;23.282;2024-01-10T05:46:22;0.95;;;0.85;;
35990;SDS011;22064;42.672;23.282;2024-01-10T05:48:48;0.10;;;0.10;;
35990;SDS011;22064;42.672;23.282;2024-01-10T05:51:15;1.48;;;0.45;;
35990;SDS011;22064;42.672;23.282;2024-01-10T05:53:41;1.70;;;1.60;;
35990;SDS011;22064;42.672;23.282;2024-01-10T05:56:07;5.57;;;1.75;;
35990;SDS011;22064;42.672;23.282;2024-01-10T05:58:33;3.45;;;1.67;;
35990;SDS011;22064;42.672;23.282;2024-01-10T06:00:58;2.95;;;1.63;;
35990;SDS011;22064;42.672;23.282;2024-01-10T06:03:24;1.35;;;1.00;;
35990;SDS011;22064;42.672;23.282;2024-01-10T06:05:51;5.30;;;1.65;;
35990;SDS011;22064;42.672;23.282;2024-01-10T06:08:16;1.20;;;1.05;;
35990;SDS011;22064;42.672;23.282;2024-01-10T06:10:42;1.15;;;1.05;;
35990;SDS011;22064;42.672;23.282;2024-01-10T06:13:08;4.05;;;1.27;;
35990;SDS011;22064;42.672;23.282;2024-01-10T06:15:34;0.65;;;0.65;;
35990;SDS011;22064;42.672;23.282;2024-01-10T06:18:00;1.05;;;1.05;;
35990;SDS011;22064;42.672;23.282;2024-01-10T06:20:26;3.25;;;1.80;;
35990;SDS011;22064;42.672;23.282;2024-01-10T06:22:53;0.95;;;0.95;;
35990;SDS011;22064;42.672;23.282;2024-01-10T06:25:19;3.35;;;2.85;;
35990;SDS011;22064;42.672;23.282;2024-01-10T06:27:45;0.50;;;0.50;;
35990;SDS011;22064;42.672;23.282;2024-01-10T06:30:11;1.30;;;1.20;;
35990;SDS011;22064;42.672;23.282;2024-01-10T06:32:37;7.75;;;1.65;;
35990;SDS011;22064;42.672;23.282;2024-01-10T06:35:03;2.22;;;2.05;;
35990;SDS011;22064;42.672;23.282;2024-01-10T06:37:30;0.80;;;0.80;;
35990;SDS011;22064;42.672;23.282;2024-01-10T06:39:56;2.47;;;1.95;;
35990;SDS011;22064;42.672;23.282;2024-01-10T06:42:22;4.97;;;2.42;;
35990;SDS011;22064;42.672;23.282;2024-01-10T06:44:49;5.07;;;4.60;;
35990;SDS011;22064;42.672;23.282;2024-01-10T06:47:15;2.08;;;1.90;;
35990;SDS011;22064;42.672;23.282;2024-01-10T06:49:41;6.68;;;3.60;;
35990;SDS011;22064;42.672;23.282;2024-01-10T06:52:07;5.35;;;2.50;;
35990;SDS011;22064;42.672;23.282;2024-01-10T06:54:33;3.42;;;3.15;;
35990;SDS011;22064;42.672;23.282;2024-01-10T06:57:00;4.30;;;3.15;;
35990;SDS011;22064;42.672;23.282;2024-01-10T06:59:26;3.70;;;2.72;;
35990;SDS011;22064;42.672;23.282;2024-01-10T07:01:52;4.40;;;3.47;;
35990;SDS011;22064;42.672;23.282;2024-01-10T07:04:19;2.88;;;2.65;;
35990;SDS011;22064;42.672;23.282;2024-01-10T07:06:47;5.13;;;4.00;;
35990;SDS011;22064;42.672;23.282;2024-01-10T07:09:13;1.95;;;1.95;;
35990;SDS011;22064;42.672;23.282;2024-01-10T07:11:48;3.55;;;3.25;;
35990;SDS011;22064;42.672;23.282;2024-01-10T07:14:14;4.90;;;3.35;;
35990;SDS011;22064;42.672;23.282;2024-01-10T07:16:41;4.55;;;4.03;;
35990;SDS011;22064;42.672;23.282;2024-01-10T07:19:11;4.50;;;3.50;;
35990;SDS011;22064;42.672;23.282;2024-01-10T07:21:39;10.68;;;5.78;;
35990;SDS011;22064;42.672;23.282;2024-01-10T07:24:06;7.78;;;4.50;;
35990;SDS011;22064;42.672;23.282;2024-01-10T07:26:34;4.18;;;3.65;;
35990;SDS011;22064;42.672;23.282;2024-01-10T07:29:00;6.88;;;4.60;;
35990;SDS011;22064;42.672;23.282;2024-01-10T07:31:30;4.55;;;3.75;;
35990;SDS011;22064;42.672;23.282;2024-01-10T07:33:57;7.50;;;4.00;;
35990;SDS011;22064;42.672;23.282;2024-01-10T07:36:26;5.65;;;3.70;;
35990;SDS011;22064;42.672;23.282;2024-01-10T07:41:18;7.35;;;3.42;;
35990;SDS011;22064;42.672;23.282;2024-01-10T07:43:44;3.95;;;3.75;;
35990;SDS011;22064;42.672;23.282;2024-01-10T07:46:10;3.75;;;3.55;;
35990;SDS011;22064;42.672;23.282;2024-01-10T07:48:36;7.32;;;4.70;;
35990;SDS011;22064;42.672;23.282;2024-01-10T07:51:03;4.57;;;4.32;;
35990;SDS011;22064;42.672;23.282;2024-01-10T07:53:30;3.80;;;3.60;;
35990;SDS011;22064;42.672;23.282;2024-01-10T07:55:55;3.40;;;3.30;;
35990;SDS011;22064;42.672;23.282;2024-01-10T07:58:22;4.30;;;4.00;;
35990;SDS011;22064;42.672;23.282;2024-01-10T08:00:48;3.72;;;3.63;;
35990;SDS011;22064;42.672;23.282;2024-01-10T08:03:14;3.78;;;3.67;;
35990;SDS011;22064;42.672;23.282;2024-01-10T08:05:40;4.00;;;3.90;;
35990;SDS011;22064;42.672;23.282;2024-01-10T08:08:06;3.85;;;3.75;;
35990;SDS011;22064;42.672;23.282;2024-01-10T08:10:33;4.40;;;4.20;;
35990;SDS011;22064;42.672;23.282;2024-01-10T08:12:58;4.63;;;4.43;;
35990;SDS011;22064;42.672;23.282;2024-01-10T08:15:25;4.50;;;4.30;;
35990;SDS011;22064;42.672;23.282;2024-01-10T08:17:51;4.20;;;4.00;;
35990;SDS011;22064;42.672;23.282;2024-01-10T08:20:18;5.35;;;4.88;;
35990;SDS011;22064;42.672;23.282;2024-01-10T08:22:46;4.30;;;4.10;;
35990;SDS011;22064;42.672;23.282;2024-01-10T08:25:13;4.00;;;3.90;;
35990;SDS011;22064;42.672;23.282;2024-01-10T08:27:41;4.00;;;3.90;;
35990;SDS011;22064;42.672;23.282;2024-01-10T08:30:07;4.35;;;4.15;;
35990;SDS011;22064;42.672;23.282;2024-01-10T08:32:35;4.03;;;3.92;;
35990;SDS011;22064;42.672;23.282;2024-01-10T08:35:03;3.90;;;3.80;;
35990;SDS011;22064;42.672;23.282;2024-01-10T08:37:34;5.82;;;5.50;;
35990;SDS011;22064;42.672;23.282;2024-01-10T08:40:00;3.85;;;3.75;;
35990;SDS011;22064;42.672;23.282;2024-01-10T08:42:32;3.70;;;3.60;;
35990;SDS011;22064;42.672;23.282;2024-01-10T08:44:58;4.10;;;3.90;;
35990;SDS011;22064;42.672;23.282;2024-01-10T08:47:24;3.97;;;3.88;;
35990;SDS011;22064;42.672;23.282;2024-01-10T08:49:50;4.55;;;4.35;;
35990;SDS011;22064;42.672;23.282;2024-01-10T08:52:16;5.30;;;4.80;;
35990;SDS011;22064;42.672;23.282;2024-01-10T08:54:42;3.55;;;3.45;;
35990;SDS011;22064;42.672;23.282;2024-01-10T08:57:08;3.60;;;3.50;;
35990;SDS011;22064;42.672;23.282;2024-01-10T08:59:34;4.00;;;3.80;;
35990;SDS011;22064;42.672;23.282;2024-01-10T09:02:00;4.60;;;4.20;;
35990;SDS011;22064;42.672;23.282;2024-01-10T09:04:26;4.63;;;4.43;;
35990;SDS011;22064;42.672;23.282;2024-01-10T09:06:52;4.57;;;4.28;;
35990;SDS011;22064;42.672;23.282;2024-01-10T09:09:18;5.10;;;3.97;;
35990;SDS011;22064;42.672;23.282;2024-01-10T09:11:47;4.07;;;3.88;;
35990;SDS011;22064;42.672;23.282;2024-01-10T09:16:41;3.53;;;3.33;;
35990;SDS011;22064;42.672;23.282;2024-01-10T09:19:07;3.00;;;2.90;;
35990;SDS011;22064;42.672;23.282;2024-01-10T09:21:35;2.60;;;2.50;;
35990;SDS011;22064;42.672;23.282;2024-01-10T09:24:01;2.20;;;2.20;;
35990;SDS011;22064;42.672;23.282;2024-01-10T09:26:30;3.05;;;2.95;;
35990;SDS011;22064;42.672;23.282;2024-01-10T09:28:57;3.65;;;3.45;;
35990;SDS011;22064;42.672;23.282;2024-01-10T09:31:23;2.60;;;2.50;;
35990;SDS011;22064;42.672;23.282;2024-01-10T09:33:49;2.28;;;2.28;;
35990;SDS011;22064;42.672;23.282;2024-01-10T09:36:15;1.80;;;1.80;;
35990;SDS011;22064;42.672;23.282;2024-01-10T09:38:41;1.40;;;1.40;;
35990;SDS011;22064;42.672;23.282;2024-01-10T09:41:06;1.60;;;1.60;;
35990;SDS011;22064;42.672;23.282;2024-01-10T09:43:33;2.42;;;2.40;;
35990;SDS011;22064;42.672;23.282;2024-01-10T09:46:00;2.30;;;2.30;;
35990;SDS011;22064;42.672;23.282;2024-01-10T09:48:26;3.05;;;2.95;;
35990;SDS011;22064;42.672;23.282;2024-01-10T09:50:52;3.00;;;2.90;;
35990;SDS011;22064;42.672;23.282;2024-01-10T09:53:21;3.10;;;3.00;;
35990;SDS011;22064;42.672;23.282;2024-01-10T09:55:52;2.90;;;2.80;;
35990;SDS011;22064;42.672;23.282;2024-01-10T09:58:25;3.30;;;3.20;;
35990;SDS011;22064;42.672;23.282;2024-01-10T10:00:52;3.40;;;3.30;;
35990;SDS011;22064;42.672;23.282;2024-01-10T10:03:18;4.10;;;3.95;;
35990;SDS011;22064;42.672;23.282;2024-01-10T10:05:44;3.80;;;3.70;;
35990;SDS011;22064;42.672;23.282;2024-01-10T10:08:11;3.92;;;3.78;;
35990;SDS011;22064;42.672;23.282;2024-01-10T10:10:50;4.70;;;4.50;;
35990;SDS011;22064;42.672;23.282;2024-01-10T10:13:26;4.00;;;3.90;;
35990;SDS011;22064;42.672;23.282;2024-01-10T10:16:00;3.95;;;3.85;;
35990;SDS011;22064;42.672;23.282;2024-01-10T10:18:27;5.65;;;5.25;;
35990;SDS011;22064;42.672;23.282;2024-01-10T10:23:40;3.80;;;3.70;;
35990;SDS011;22064;42.672;23.282;2024-01-10T10:28:50;4.20;;;4.00;;
35990;SDS011;22064;42.672;23.282;2024-01-10T10:31:17;4.68;;;4.40;;
35990;SDS011;22064;42.672;23.282;2024-01-10T10:33:44;4.00;;;3.90;;
35990;SDS011;22064;42.672;23.282;2024-01-10T10:36:10;4.22;;;4.03;;
35990;SDS011;22064;42.672;23.282;2024-01-10T10:38:39;4.20;;;4.00;;
35990;SDS011;22064;42.672;23.282;2024-01-10T10:41:06;4.50;;;4.30;;
35990;SDS011;22064;42.672;23.282;2024-01-10T10:43:36;9.45;;;8.88;;
35990;SDS011;22064;42.672;23.282;2024-01-10T10:46:09;3.80;;;3.60;;
35990;SDS011;22064;42.672;23.282;2024-01-10T10:48:37;3.75;;;3.50;;
35990;SDS011;22064;42.672;23.282;2024-01-10T10:51:05;3.60;;;3.50;;
35990;SDS011;22064;42.672;23.282;2024-01-10T10:53:34;5.78;;;5.32;;
35990;SDS011;22064;42.672;23.282;2024-01-10T10:56:04;4.63;;;4.43;;
35990;SDS011;22064;42.672;23.282;2024-01-10T10:58:37;5.97;;;5.68;;
35990;SDS011;22064;42.672;23.282;2024-01-10T11:01:05;4.93;;;4.72;;
35990;SDS011;22064;42.672;23.282;2024-01-10T11:03:33;6.07;;;5.68;;
35990;SDS011;22064;42.672;23.282;2024-01-10T11:06:01;5.22;;;5.03;;
35990;SDS011;22064;42.672;23.282;2024-01-10T11:08:30;5.10;;;4.90;;
35990;SDS011;22064;42.672;23.282;2024-01-10T11:11:24;4.80;;;4.60;;
35990;SDS011;22064;42.672;23.282;2024-01-10T11:19:52;3.92;;;3.83;;
35990;SDS011;22064;42.672;23.282;2024-01-10T11:25:03;3.97;;;3.83;;
35990;SDS011;22064;42.672;23.282;2024-01-10T11:27:30;3.40;;;3.30;;
35990;SDS011;22064;42.672;23.282;2024-01-10T11:29:56;4.95;;;4.65;;
35990;SDS011;22064;42.672;23.282;2024-01-10T11:32:24;4.65;;;4.43;;
35990;SDS011;22064;42.672;23.282;2024-01-10T11:34:54;4.20;;;4.00;;
35990;SDS011;22064;42.672;23.282;2024-01-10T11:37:27;5.35;;;4.82;;
35990;SDS011;22064;42.672;23.282;2024-01-10T11:40:04;4.00;;;3.80;;
35990;SDS011;22064;42.672;23.282;2024-01-10T11:42:45;3.70;;;3.53;;
35990;SDS011;22064;42.672;23.282;2024-01-10T11:46:12;3.50;;;3.40;;
35990;SDS011;22064;42.672;23.282;2024-01-10T11:48:32;3.53;;;3.42;;
35990;SDS011;22064;42.672;23.282;2024-01-10T11:50:58;4.13;;;3.92;;
35990;SDS011;22064;42.672;23.282;2024-01-10T11:53:41;3.60;;;3.50;;
35990;SDS011;22064;42.672;23.282;2024-01-10T11:56:12;3.80;;;3.70;;
35990;SDS011;22064;42.672;23.282;2024-01-10T12:01:41;4.35;;;4.10;;
35990;SDS011;22064;42.672;23.282;2024-01-10T12:04:08;5.55;;;4.18;;
35990;SDS011;22064;42.672;23.282;2024-01-10T12:06:35;4.20;;;4.03;;
35990;SDS011;22064;42.672;23.282;2024-01-10T12:09:02;4.85;;;4.57;;
35990;SDS011;22064;42.672;23.282;2024-01-10T12:11:36;4.50;;;4.30;;
35990;SDS011;22064;42.672;23.282;2024-01-10T12:14:04;4.50;;;4.30;;
35990;SDS011;22064;42.672;23.282;2024-01-10T12:16:32;4.40;;;4.20;;
35990;SDS011;22064;42.672;23.282;2024-01-10T12:18:58;4.30;;;4.10;;
35990;SDS011;22064;42.672;23.282;2024-01-10T12:21:24;4.38;;;4.18;;
35990;SDS011;22064;42.672;23.282;2024-01-10T12:23:50;4.80;;;4.60;;
35990;SDS011;22064;42.672;23.282;2024-01-10T12:26:19;5.70;;;5.17;;
35990;SDS011;22064;42.672;23.282;2024-01-10T12:28:54;9.25;;;7.45;;
35990;SDS011;22064;42.672;23.282;2024-01-10T12:31:21;13.45;;;7.38;;
35990;SDS011;22064;42.672;23.282;2024-01-10T12:33:51;5.25;;;4.95;;
35990;SDS011;22064;42.672;23.282;2024-01-10T12:36:17;8.05;;;6.22;;
35990;SDS011;22064;42.672;23.282;2024-01-10T12:38:44;6.05;;;5.65;;
35990;SDS011;22064;42.672;23.282;2024-01-10T12:41:10;4.07;;;3.95;;
35990;SDS011;22064;42.672;23.282;2024-01-10T12:43:37;11.95;;;11.10;;
35990;SDS011;22064;42.672;23.282;2024-01-10T12:48:33;4.95;;;4.65;;
35990;SDS011;22064;42.672;23.282;2024-01-10T12:51:03;5.60;;;5.30;;
35990;SDS011;22064;42.672;23.282;2024-01-10T12:53:34;5.05;;;4.75;;
35990;SDS011;22064;42.672;23.282;2024-01-10T12:56:01;4.60;;;4.40;;
35990;SDS011;22064;42.672;23.282;2024-01-10T12:58:29;4.82;;;4.60;;
35990;SDS011;22064;42.672;23.282;2024-01-10T13:00:55;8.60;;;8.15;;
35990;SDS011;22064;42.672;23.282;2024-01-10T13:03:22;4.70;;;4.50;;
35990;SDS011;22064;42.672;23.282;2024-01-10T13:05:52;6.22;;;5.82;;
35990;SDS011;22064;42.672;23.282;2024-01-10T13:08:18;7.97;;;6.65;;
35990;SDS011;22064;42.672;23.282;2024-01-10T13:10:45;5.90;;;5.50;;
35990;SDS011;22064;42.672;23.282;2024-01-10T13:13:11;9.70;;;7.45;;
35990;SDS011;22064;42.672;23.282;2024-01-10T13:15:38;8.25;;;6.43;;
35990;SDS011;22064;42.672;23.282;2024-01-10T13:18:04;13.75;;;7.38;;
35990;SDS011;22064;42.672;23.282;2024-01-10T13:20:30;18.48;;;8.43;;
35990;SDS011;22064;42.672;23.282;2024-01-10T13:22:56;10.02;;;7.25;;
35990;SDS011;22064;42.672;23.282;2024-01-10T13:25:22;6.32;;;5.57;;
35990;SDS011;22064;42.672;23.282;2024-01-10T13:27:51;4.40;;;4.20;;
35990;SDS011;22064;42.672;23.282;2024-01-10T13:30:18;5.75;;;5.45;;
35990;SDS011;22064;42.672;23.282;2024-01-10T13:32:44;4.10;;;3.90;;
35990;SDS011;22064;42.672;23.282;2024-01-10T13:35:12;5.60;;;5.25;;
35990;SDS011;22064;42.672;23.282;2024-01-10T13:37:39;4.43;;;4.13;;
35990;SDS011;22064;42.672;23.282;2024-01-10T13:40:09;4.75;;;4.55;;
35990;SDS011;22064;42.672;23.282;2024-01-10T13:42:41;14.98;;;7.03;;
35990;SDS011;22064;42.672;23.282;2024-01-10T13:45:08;6.20;;;5.32;;
35990;SDS011;22064;42.672;23.282;2024-01-10T13:47:36;6.20;;;5.70;;
35990;SDS011;22064;42.672;23.282;2024-01-10T13:50:06;8.82;;;6.97;;
35990;SDS011;22064;42.672;23.282;2024-01-10T13:52:34;7.03;;;6.00;;
35990;SDS011;22064;42.672;23.282;2024-01-10T13:55:01;5.13;;;4.78;;
35990;SDS011;22064;42.672;23.282;2024-01-10T13:57:30;5.35;;;5.05;;
35990;SDS011;22064;42.672;23.282;2024-01-10T14:00:00;4.10;;;4.00;;
35990;SDS011;22064;42.672;23.282;2024-01-10T14:02:27;5.93;;;5.22;;
35990;SDS011;22064;42.672;23.282;2024-01-10T14:04:53;4.00;;;3.90;;
35990;SDS011;22064;42.672;23.282;2024-01-10T14:07:26;8.27;;;5.53;;
35990;SDS011;22064;42.672;23.282;2024-01-10T14:09:52;4.30;;;4.10;;
35990;SDS011;22064;42.672;23.282;2024-01-10T14:12:21;6.57;;;6.15;;
35990;SDS011;22064;42.672;23.282;2024-01-10T14:14:48;4.75;;;4.35;;
35990;SDS011;22064;42.672;23.282;2024-01-10T14:17:13;11.82;;;6.65;;
35990;SDS011;22064;42.672;23.282;2024-01-10T14:19:39;5.00;;;4.60;;
35990;SDS011;22064;42.672;23.282;2024-01-10T14:22:05;4.57;;;4.38;;
35990;SDS011;22064;42.672;23.282;2024-01-10T14:24:32;4.50;;;4.30;;
35990;SDS011;22064;42.672;23.282;2024-01-10T14:26:58;6.53;;;4.70;;
35990;SDS011;22064;42.672;23.282;2024-01-10T14:29:24;4.05;;;3.85;;
35990;SDS011;22064;42.672;23.282;2024-01-10T14:31:50;10.10;;;7.03;;
35990;SDS011;22064;42.672;23.282;2024-01-10T14:34:16;4.55;;;4.35;;
35990;SDS011;22064;42.672;23.282;2024-01-10T14:36:42;7.15;;;6.47;;
35990;SDS011;22064;42.672;23.282;2024-01-10T14:39:08;3.95;;;3.83;;
35990;SDS011;22064;42.672;23.282;2024-01-10T14:41:37;4.78;;;4.45;;
35990;SDS011;22064;42.672;23.282;2024-01-10T14:44:03;4.40;;;4.20;;
35990;SDS011;22064;42.672;23.282;2024-01-10T14:46:29;4.20;;;4.00;;
35990;SDS011;22064;42.672;23.282;2024-01-10T14:48:56;4.20;;;4.00;;
35990;SDS011;22064;42.672;23.282;2024-01-10T14:51:22;4.28;;;4.07;;
35990;SDS011;22064;42.672;23.282;2024-01-10T14:53:49;3.50;;;3.30;;
35990;SDS011;22064;42.672;23.282;2024-01-10T14:56:17;2.85;;;2.75;;